createdAt,value
2017-08-14T00:00:06.890Z,17.70
2017-08-14T00:02:33.175Z,17.70
2017-08-14T00:04:59.452Z,17.70
2017-08-14T00:07:26.460Z,17.70
2017-08-14T00:09:52.745Z,17.70
2017-08-14T00:12:19.772Z,17.80
2017-08-14T00:14:46.061Z,17.70
2017-08-14T00:17:12.335Z,17.70
2017-08-14T00:19:39.340Z,17.60
2017-08-14T00:22:05.608Z,17.60
2017-08-14T00:24:31.900Z,17.60
2017-08-14T00:26:58.179Z,17.50
2017-08-14T00:29:24.475Z,17.60
2017-08-14T00:31:50.751Z,17.60
2017-08-14T00:34:17.037Z,17.60
2017-08-14T00:36:43.337Z,17.60
2017-08-14T00:39:09.640Z,17.60
2017-08-14T00:41:35.940Z,17.60
2017-08-14T00:44:02.274Z,17.60
2017-08-14T00:46:28.588Z,17.70
2017-08-14T00:48:54.920Z,17.60
2017-08-14T00:51:21.246Z,17.70
2017-08-14T00:53:47.561Z,17.70
2017-08-14T00:56:14.593Z,17.80
2017-08-14T00:58:40.895Z,17.70
2017-08-14T01:01:07.191Z,17.80
2017-08-14T01:03:33.450Z,17.80
2017-08-14T01:06:00.496Z,17.80
2017-08-14T01:08:26.817Z,17.80
2017-08-14T01:10:53.116Z,17.80
2017-08-14T01:13:19.396Z,17.80
2017-08-14T01:15:45.682Z,17.80
2017-08-14T01:18:12.034Z,17.80
2017-08-14T01:20:38.349Z,17.80
2017-08-14T01:23:04.647Z,17.80
2017-08-14T01:25:31.690Z,17.70
2017-08-14T01:27:57.971Z,17.70
2017-08-14T01:30:24.255Z,17.70
2017-08-14T01:32:50.560Z,17.60
2017-08-14T01:35:17.589Z,17.70
2017-08-14T01:37:43.870Z,17.70
2017-08-14T01:40:10.179Z,17.70
2017-08-14T01:42:36.470Z,17.60
2017-08-14T01:45:02.786Z,17.60
2017-08-14T01:47:29.037Z,17.50
2017-08-14T01:49:55.329Z,17.60
2017-08-14T01:52:22.344Z,17.60
2017-08-14T01:54:48.619Z,17.60
2017-08-14T01:57:14.887Z,17.60
2017-08-14T01:59:41.176Z,17.50
2017-08-14T02:02:07.437Z,17.40
2017-08-14T02:04:33.746Z,17.40
2017-08-14T02:07:00.023Z,17.50
2017-08-14T02:09:26.299Z,17.50
2017-08-14T02:11:52.554Z,17.50
2017-08-14T02:14:18.863Z,17.50
2017-08-14T02:16:45.152Z,17.50
2017-08-14T02:19:11.426Z,17.50
2017-08-14T02:21:37.978Z,17.50
2017-08-14T02:24:04.250Z,17.50
2017-08-14T02:26:30.540Z,17.40
2017-08-14T02:28:56.803Z,17.40
2017-08-14T02:31:23.077Z,17.50
2017-08-14T02:33:49.382Z,17.50
2017-08-14T02:36:15.654Z,17.50
2017-08-14T02:38:41.951Z,17.40
2017-08-14T02:41:08.219Z,17.50
2017-08-14T02:43:34.516Z,17.50
2017-08-14T02:46:00.971Z,17.50
2017-08-14T02:48:27.285Z,17.60
2017-08-14T02:50:53.614Z,17.60
2017-08-14T02:53:19.888Z,17.60
2017-08-14T02:55:46.893Z,17.50
2017-08-14T02:58:13.188Z,17.50
2017-08-14T03:00:39.478Z,17.60
2017-08-14T03:03:05.811Z,17.60
2017-08-14T03:05:32.105Z,17.70
2017-08-14T03:07:58.380Z,17.60
2017-08-14T03:10:25.419Z,17.60
2017-08-14T03:12:51.723Z,17.60
2017-08-14T03:15:18.012Z,17.60
2017-08-14T03:17:44.317Z,17.60
2017-08-14T03:20:10.607Z,17.60
2017-08-14T03:22:36.865Z,17.70
2017-08-14T03:25:03.168Z,17.70
2017-08-14T03:27:30.369Z,17.60
2017-08-14T03:29:56.640Z,17.60
2017-08-14T03:32:22.897Z,17.60
2017-08-14T03:34:49.364Z,17.60
2017-08-14T03:37:15.648Z,17.60
2017-08-14T03:39:41.994Z,17.60
2017-08-14T03:42:08.273Z,17.50
2017-08-14T03:44:34.529Z,17.50
2017-08-14T03:47:00.786Z,17.60
2017-08-14T03:49:27.797Z,17.60
2017-08-14T03:51:54.064Z,17.50
2017-08-14T03:54:20.345Z,17.60
2017-08-14T03:56:47.370Z,17.60
2017-08-14T03:59:13.671Z,17.60
2017-08-14T04:01:40.680Z,17.50
2017-08-14T04:04:06.938Z,17.50
2017-08-14T04:06:33.203Z,17.60
2017-08-14T04:08:59.466Z,17.50
2017-08-14T04:11:26.496Z,17.60
2017-08-14T04:13:52.774Z,17.60
2017-08-14T04:16:19.824Z,17.60
2017-08-14T04:18:46.091Z,17.50
2017-08-14T04:21:12.387Z,17.50
2017-08-14T04:23:38.685Z,17.40
2017-08-14T04:26:05.693Z,17.60
2017-08-14T04:28:31.971Z,17.50
2017-08-14T04:30:58.246Z,17.60
2017-08-14T04:33:24.518Z,17.60
2017-08-14T04:35:50.773Z,17.60
2017-08-14T04:38:17.014Z,17.60
2017-08-14T04:40:43.265Z,17.50
2017-08-14T04:43:09.545Z,17.40
2017-08-14T04:45:35.835Z,17.50
2017-08-14T04:48:02.866Z,17.60
2017-08-14T04:50:29.148Z,17.50
2017-08-14T04:52:56.165Z,17.50
2017-08-14T04:55:22.428Z,17.50
2017-08-14T04:57:48.698Z,17.50
2017-08-14T05:00:15.736Z,17.40
2017-08-14T05:02:42.802Z,17.40
2017-08-14T05:05:09.067Z,17.40
2017-08-14T05:07:35.330Z,17.50
2017-08-14T05:10:02.343Z,17.50
2017-08-14T05:12:28.603Z,17.50
2017-08-14T05:14:54.890Z,17.50
2017-08-14T05:17:21.944Z,17.60
2017-08-14T05:19:48.968Z,17.60
2017-08-14T05:22:15.259Z,17.60
2017-08-14T05:24:42.259Z,17.60
2017-08-14T05:27:08.514Z,17.60
2017-08-14T05:29:34.794Z,17.70
2017-08-14T05:32:01.068Z,17.60
2017-08-14T05:34:27.392Z,17.60
2017-08-14T05:36:53.652Z,17.70
2017-08-14T05:39:20.665Z,17.70
2017-08-14T05:41:46.926Z,17.60
2017-08-14T05:44:13.224Z,17.70
2017-08-14T05:46:40.241Z,17.80
2017-08-14T05:49:06.500Z,17.80
2017-08-14T05:51:32.760Z,17.80
2017-08-14T05:53:59.051Z,17.90
2017-08-14T05:56:25.301Z,17.90
2017-08-14T05:58:51.587Z,18.00
2017-08-14T06:01:17.857Z,18.00
2017-08-14T06:03:44.183Z,18.10
2017-08-14T06:06:10.451Z,18.00
2017-08-14T06:08:36.714Z,18.10
2017-08-14T06:11:03.728Z,18.10
2017-08-14T06:13:30.016Z,18.10
2017-08-14T06:15:56.311Z,18.10
2017-08-14T06:18:22.577Z,18.20
2017-08-14T06:20:48.830Z,18.20
2017-08-14T06:23:15.221Z,18.20
2017-08-14T06:25:42.247Z,18.40
2017-08-14T06:28:08.503Z,18.40
2017-08-14T06:30:34.790Z,18.50
2017-08-14T06:33:01.774Z,18.60
2017-08-14T06:35:28.088Z,18.60
2017-08-14T06:37:55.109Z,18.60
2017-08-14T06:40:21.400Z,18.60
2017-08-14T06:42:48.410Z,18.70
2017-08-14T06:45:14.683Z,18.70
2017-08-14T06:47:40.952Z,18.70
2017-08-14T06:50:07.975Z,18.70
2017-08-14T06:52:34.230Z,18.70
2017-08-14T06:55:00.513Z,18.80
2017-08-14T06:57:27.550Z,18.80
2017-08-14T06:59:53.819Z,18.80
2017-08-14T07:02:20.109Z,18.90
2017-08-14T07:04:46.383Z,19.00
2017-08-14T07:07:12.716Z,19.00
2017-08-14T07:09:38.996Z,19.00
2017-08-14T07:12:05.296Z,19.10
2017-08-14T07:14:31.560Z,19.10
2017-08-14T07:16:57.820Z,19.20
2017-08-14T07:19:24.151Z,19.30
2017-08-14T07:21:50.445Z,19.20
2017-08-14T07:24:16.710Z,19.20
2017-08-14T07:26:43.726Z,19.30
2017-08-14T07:29:09.987Z,19.30
2017-08-14T07:31:36.256Z,19.40
2017-08-14T07:34:02.544Z,19.40
2017-08-14T07:36:28.832Z,19.50
2017-08-14T07:38:55.103Z,19.60
2017-08-14T07:41:22.158Z,19.70
2017-08-14T07:43:48.456Z,19.70
2017-08-14T07:46:14.724Z,19.70
2017-08-14T07:48:41.044Z,19.80
2017-08-14T07:51:07.447Z,20.00
2017-08-14T07:53:33.746Z,20.00
2017-08-14T07:56:00.037Z,20.00
2017-08-14T07:58:26.402Z,20.10
2017-08-14T08:00:52.672Z,20.00
2017-08-14T08:03:18.938Z,20.20
2017-08-14T08:05:45.235Z,20.30
2017-08-14T08:08:12.276Z,20.40
2017-08-14T08:10:39.001Z,20.40
2017-08-14T08:13:05.346Z,20.40
2017-08-14T08:15:31.605Z,20.50
2017-08-14T08:17:57.910Z,20.50
2017-08-14T08:20:24.984Z,20.60
2017-08-14T08:22:51.287Z,20.50
2017-08-14T08:25:17.578Z,20.80
2017-08-14T08:27:44.595Z,21.10
2017-08-14T08:30:10.840Z,21.10
2017-08-14T08:32:37.111Z,21.20
2017-08-14T08:35:04.131Z,21.20
2017-08-14T08:37:30.401Z,21.10
2017-08-14T08:39:56.655Z,21.20
2017-08-14T08:42:22.937Z,21.10
2017-08-14T08:44:49.950Z,21.40
2017-08-14T08:47:16.223Z,21.30
2017-08-14T08:49:42.508Z,21.40
2017-08-14T08:52:08.777Z,21.40
2017-08-14T08:54:35.088Z,21.40
2017-08-14T08:57:02.123Z,21.70
2017-08-14T08:59:28.391Z,21.70
2017-08-14T09:01:55.425Z,21.70
2017-08-14T09:04:21.673Z,21.70
2017-08-14T09:06:47.937Z,21.80
2017-08-14T09:09:14.233Z,21.80
2017-08-14T09:11:40.525Z,21.90
2017-08-14T09:14:06.825Z,21.90
2017-08-14T09:16:33.113Z,21.80
2017-08-14T09:18:59.381Z,21.80
2017-08-14T09:21:25.680Z,21.90
2017-08-14T09:23:51.934Z,21.90
2017-08-14T09:26:18.190Z,21.90
2017-08-14T09:28:44.459Z,22.00
2017-08-14T09:31:10.731Z,22.20
2017-08-14T09:33:37.019Z,22.30
2017-08-14T09:36:03.287Z,22.40
2017-08-14T09:38:29.586Z,22.30
2017-08-14T09:40:56.641Z,22.30
2017-08-14T09:43:23.671Z,22.20
2017-08-14T09:45:49.977Z,22.10
2017-08-14T09:48:16.245Z,22.00
2017-08-14T09:50:42.491Z,21.90
2017-08-14T09:53:08.765Z,21.90
2017-08-14T09:55:35.042Z,21.90
2017-08-14T09:58:02.071Z,22.30
2017-08-14T10:00:28.338Z,22.30
2017-08-14T10:02:54.617Z,22.40
2017-08-14T10:05:27.854Z,22.50
2017-08-14T10:07:54.150Z,23.10
2017-08-14T10:10:20.425Z,24.60
2017-08-14T10:12:46.740Z,26.50
2017-08-14T10:15:13.766Z,29.80
2017-08-14T10:17:40.063Z,29.80
2017-08-14T10:20:06.444Z,30.80
2017-08-14T10:22:32.765Z,31.50
2017-08-14T10:24:59.793Z,29.60
2017-08-14T10:27:26.075Z,29.50
2017-08-14T10:29:53.164Z,30.10
2017-08-14T10:32:19.438Z,30.00
2017-08-14T10:34:45.739Z,30.60
2017-08-14T10:37:12.740Z,31.60
2017-08-14T10:39:39.097Z,31.50
2017-08-14T10:42:05.355Z,32.50
2017-08-14T10:44:31.614Z,33.20
2017-08-14T10:46:57.890Z,33.30
2017-08-14T10:49:24.875Z,32.80
2017-08-14T10:51:51.195Z,32.80
2017-08-14T10:54:17.458Z,32.50
2017-08-14T10:56:43.740Z,31.00
2017-08-14T10:59:10.026Z,29.90
2017-08-14T11:01:36.289Z,28.70
2017-08-14T11:04:03.309Z,28.60
2017-08-14T11:06:29.618Z,28.60
2017-08-14T11:08:56.677Z,29.70
2017-08-14T11:11:23.679Z,31.30
2017-08-14T11:13:49.966Z,31.20
2017-08-14T11:16:16.243Z,32.20
2017-08-14T11:18:43.337Z,33.20
2017-08-14T11:21:09.633Z,33.10
2017-08-14T11:23:36.648Z,32.50
2017-08-14T11:26:02.913Z,32.40
2017-08-14T11:28:29.216Z,30.90
2017-08-14T11:30:56.214Z,28.20
2017-08-14T11:33:22.484Z,28.20
2017-08-14T11:35:48.750Z,27.30
2017-08-14T11:38:15.021Z,26.50
2017-08-14T11:40:41.272Z,25.70
2017-08-14T11:43:07.539Z,25.40
2017-08-14T11:45:33.802Z,25.30
2017-08-14T11:48:00.065Z,24.90
2017-08-14T11:50:26.322Z,24.60
2017-08-14T11:52:52.593Z,24.50
2017-08-14T11:55:19.581Z,24.10
2017-08-14T11:57:45.868Z,24.10
2017-08-14T12:00:12.181Z,24.00
2017-08-14T12:02:38.467Z,24.00
2017-08-14T12:05:04.801Z,24.00
2017-08-14T12:07:31.067Z,24.10
2017-08-14T12:09:57.335Z,24.20
2017-08-14T12:12:24.438Z,23.90
2017-08-14T12:14:50.707Z,23.90
2017-08-14T12:17:16.992Z,23.80
2017-08-14T12:19:43.368Z,23.70
2017-08-14T12:22:09.628Z,23.70
2017-08-14T12:24:35.903Z,23.60
2017-08-14T12:27:02.166Z,23.50
2017-08-14T12:29:28.433Z,23.50
2017-08-14T12:31:54.688Z,23.50
2017-08-14T12:34:21.717Z,23.50
2017-08-14T12:36:48.005Z,23.50
2017-08-14T12:39:14.991Z,23.30
2017-08-14T12:41:41.241Z,23.30
2017-08-14T12:44:07.511Z,23.20
2017-08-14T12:46:33.765Z,23.40
2017-08-14T12:49:00.005Z,23.40
2017-08-14T12:51:26.284Z,23.40
2017-08-14T12:53:53.313Z,23.20
2017-08-14T12:56:19.571Z,23.20
2017-08-14T12:58:45.840Z,23.40
2017-08-14T13:01:12.098Z,23.30
2017-08-14T13:03:39.129Z,23.30
2017-08-14T13:06:05.373Z,23.30
2017-08-14T13:08:31.627Z,23.40
2017-08-14T13:10:57.901Z,23.30
2017-08-14T13:13:24.922Z,23.20
2017-08-14T13:15:51.189Z,23.20
2017-08-14T13:18:17.507Z,23.30
2017-08-14T13:20:43.818Z,23.20
2017-08-14T13:23:10.840Z,23.20
2017-08-14T13:25:37.089Z,23.20
2017-08-14T13:28:03.419Z,23.10
2017-08-14T13:30:29.701Z,23.20
2017-08-14T13:32:55.989Z,23.30
2017-08-14T13:35:22.977Z,23.00
2017-08-14T13:37:49.215Z,23.00
2017-08-14T13:40:15.515Z,23.00
